Time;durP1;ratioP1;P1;durP2;ratioP2;P2;SDS_P1;SDS_P2;PMS_P1;PMS_P2;Temp;Humidity;BMP_temperature;BMP_pressure;BME280_temperature;BME280_humidity;BME280_pressure;Samples;Min_cycle;Max_cycle;Signal;HPM_P1;HPM_P2
2022/01/16 00:00:32;;;;;;;13.90;10.38;;;;;;;;;;5093834;28;20035;-83
2022/01/16 00:05:24;;;;;;;11.50;9.60;;;;;;;;;;5111827;28;20027;-81
2022/01/16 00:07:51;;;;;;;11.98;10.00;;;;;;;;;;5112150;28;20548;-79
2022/01/16 00:10:18;;;;;;;12.60;9.95;;;;;;;;;;5112625;28;20015;-79
2022/01/16 00:12:48;;;;;;;13.18;9.32;;;;;;;;;;5112161;28;20024;-81
2022/01/16 00:15:14;;;;;;;11.63;10.02;;;;;;;;;;5112469;28;20068;-81
2022/01/16 00:17:52;;;;;;;12.18;9.70;;;;;;;;;;5093749;28;20047;-81
2022/01/16 00:20:18;;;;;;;13.13;9.93;;;;;;;;;;5093972;28;20074;-84
2022/01/16 00:22:46;;;;;;;12.25;9.75;;;;;;;;;;5093770;28;20540;-80
2022/01/16 00:25:12;;;;;;;14.48;10.13;;;;;;;;;;5111812;28;20051;-82
2022/01/16 00:27:38;;;;;;;14.63;10.48;;;;;;;;;;5093540;28;20104;-80
2022/01/16 00:30:04;;;;;;;12.80;9.75;;;;;;;;;;5111883;28;20030;-81
2022/01/16 00:32:30;;;;;;;12.45;10.15;;;;;;;;;;5093408;28;20026;-82
2022/01/16 00:34:56;;;;;;;12.85;10.63;;;;;;;;;;5111854;28;20027;-84
2022/01/16 00:37:22;;;;;;;13.48;10.18;;;;;;;;;;5111676;28;20073;-85
2022/01/16 00:39:48;;;;;;;11.68;9.60;;;;;;;;;;5111835;28;20039;-81
2022/01/16 00:42:14;;;;;;;11.95;10.05;;;;;;;;;;5112111;28;20028;-82
2022/01/16 00:44:41;;;;;;;12.30;9.57;;;;;;;;;;5111197;28;20107;-80
2022/01/16 00:47:07;;;;;;;11.43;9.82;;;;;;;;;;5093480;28;20031;-81
2022/01/16 00:49:36;;;;;;;12.30;9.90;;;;;;;;;;5092862;28;20038;-82
2022/01/16 00:52:02;;;;;;;13.93;10.18;;;;;;;;;;5111718;28;20368;-82
2022/01/16 00:54:28;;;;;;;12.77;10.15;;;;;;;;;;5093069;28;20500;-83
2022/01/16 00:56:54;;;;;;;12.10;9.80;;;;;;;;;;5111200;28;20027;-83
2022/01/16 00:59:20;;;;;;;12.98;9.73;;;;;;;;;;5111342;28;20059;-82
2022/01/16 01:01:46;;;;;;;14.00;10.18;;;;;;;;;;5093639;28;20040;-83
2022/01/16 01:04:12;;;;;;;12.95;10.30;;;;;;;;;;5111464;28;20020;-88
2022/01/16 01:06:38;;;;;;;13.23;10.25;;;;;;;;;;5111158;28;20059;-80
2022/01/16 01:09:04;;;;;;;13.05;9.70;;;;;;;;;;5111486;28;20019;-80
2022/01/16 01:11:31;;;;;;;12.85;10.25;;;;;;;;;;5111306;28;20020;-80
2022/01/16 01:14:19;;;;;;;12.05;10.23;;;;;;;;;;5111379;28;20028;-80
2022/01/16 01:19:15;;;;;;;12.35;9.98;;;;;;;;;;5111459;28;19918;-83
2022/01/16 01:21:41;;;;;;;12.35;9.68;;;;;;;;;;5111411;28;20061;-82
2022/01/16 01:24:07;;;;;;;13.10;9.98;;;;;;;;;;5111717;28;20720;-80
2022/01/16 01:26:41;;;;;;;12.82;10.45;;;;;;;;;;5115030;28;20027;-86
2022/01/16 01:29:07;;;;;;;13.95;10.18;;;;;;;;;;5114982;28;20032;-84
2022/01/16 01:31:33;;;;;;;13.13;10.45;;;;;;;;;;5114876;28;20035;-85
2022/01/16 01:33:59;;;;;;;11.95;10.05;;;;;;;;;;5115082;28;20028;-83
2022/01/16 01:36:25;;;;;;;12.38;9.63;;;;;;;;;;5114902;28;20516;-84
2022/01/16 01:38:51;;;;;;;12.05;10.07;;;;;;;;;;5114990;28;20023;-84
2022/01/16 01:41:19;;;;;;;13.35;9.43;;;;;;;;;;5115274;28;20032;-84
2022/01/16 01:52:04;;;;;;;12.23;9.63;;;;;;;;;;5114868;28;20046;-83
2022/01/16 01:54:30;;;;;;;13.10;9.98;;;;;;;;;;5114526;28;20449;-80
2022/01/16 01:56:58;;;;;;;13.75;10.32;;;;;;;;;;5114696;28;20048;-80
2022/01/16 01:59:24;;;;;;;14.18;10.85;;;;;;;;;;5114231;28;20020;-81
2022/01/16 02:01:50;;;;;;;13.32;10.20;;;;;;;;;;5114481;28;20081;-81
2022/01/16 02:04:16;;;;;;;13.93;10.55;;;;;;;;;;5114816;28;20027;-81
2022/01/16 02:06:42;;;;;;;13.40;10.50;;;;;;;;;;5114337;28;20455;-81
2022/01/16 02:09:08;;;;;;;13.73;10.80;;;;;;;;;;5096339;28;20016;-81
2022/01/16 02:11:35;;;;;;;13.43;10.35;;;;;;;;;;5114202;28;20020;-82
2022/01/16 02:14:09;;;;;;;11.48;9.50;;;;;;;;;;5096156;28;20032;-82
2022/01/16 02:33:05;;;;;;;11.32;9.23;;;;;;;;;;5114505;28;20032;-85
2022/01/16 02:35:31;;;;;;;12.80;9.35;;;;;;;;;;5095160;28;20656;-84
2022/01/16 02:37:57;;;;;;;11.30;9.48;;;;;;;;;;5095634;28;20122;-85
2022/01/16 02:40:26;;;;;;;13.02;10.45;;;;;;;;;;5113618;28;20019;-83
2022/01/16 02:42:52;;;;;;;14.15;10.45;;;;;;;;;;5095483;28;20024;-84
2022/01/16 02:45:32;;;;;;;12.57;10.10;;;;;;;;;;5113967;28;20448;-85
2022/01/16 02:48:05;;;;;;;12.23;9.40;;;;;;;;;;5113352;28;20115;-85
2022/01/16 02:50:32;;;;;;;13.35;10.15;;;;;;;;;;5113388;28;20019;-83
2022/01/16 02:52:58;;;;;;;13.95;10.55;;;;;;;;;;5113675;28;20023;-83
2022/01/16 02:55:24;;;;;;;13.73;10.52;;;;;;;;;;5113615;28;20095;-81
2022/01/16 02:57:51;;;;;;;12.60;10.00;;;;;;;;;;5113728;28;20023;-81
2022/01/16 03:00:18;;;;;;;12.85;9.05;;;;;;;;;;5113777;28;20495;-83
2022/01/16 03:02:44;;;;;;;12.70;9.63;;;;;;;;;;5095340;28;20019;-86
2022/01/16 03:05:10;;;;;;;13.20;10.07;;;;;;;;;;5113524;28;20030;-87
2022/01/16 03:07:37;;;;;;;15.02;10.52;;;;;;;;;;5113143;28;20034;-80
2022/01/16 03:11:03;;;;;;;14.13;10.70;;;;;;;;;;5113384;28;20088;-81
2022/01/16 03:12:53;;;;;;;13.10;10.30;;;;;;;;;;5104486;28;20035;-81
2022/01/16 03:15:20;;;;;;;14.13;9.98;;;;;;;;;;5113380;28;20030;-81
2022/01/16 03:23:03;;;;;;;13.15;10.38;;;;;;;;;;5112857;28;20030;-82
2022/01/16 03:25:29;;;;;;;13.30;10.27;;;;;;;;;;5112844;28;20028;-81
2022/01/16 03:27:55;;;;;;;13.18;9.48;;;;;;;;;;5112695;28;20099;-81
2022/01/16 03:30:21;;;;;;;12.55;9.88;;;;;;;;;;5112740;28;20084;-82
2022/01/16 03:32:47;;;;;;;12.98;9.93;;;;;;;;;;5113137;28;20030;-82
2022/01/16 03:35:13;;;;;;;12.35;10.00;;;;;;;;;;5112726;28;20486;-81
2022/01/16 03:37:40;;;;;;;14.25;9.93;;;;;;;;;;5094426;28;20028;-84
2022/01/16 03:40:10;;;;;;;12.48;9.38;;;;;;;;;;5112942;28;20040;-83
2022/01/16 03:42:37;;;;;;;12.63;9.57;;;;;;;;;;5112492;28;20043;-85
2022/01/16 03:45:04;;;;;;;11.40;8.98;;;;;;;;;;5112604;28;20039;-84
2022/01/16 03:47:30;;;;;;;12.65;10.07;;;;;;;;;;5092951;28;20116;-81
2022/01/16 03:49:56;;;;;;;12.60;9.55;;;;;;;;;;5112488;28;20023;-82
2022/01/16 03:52:22;;;;;;;12.18;9.90;;;;;;;;;;5093930;28;20570;-80
2022/01/16 03:54:48;;;;;;;12.77;9.80;;;;;;;;;;5112874;28;20027;-81
2022/01/16 03:57:14;;;;;;;13.85;9.43;;;;;;;;;;5094503;28;20027;-83
2022/01/16 03:59:40;;;;;;;13.55;10.75;;;;;;;;;;5112111;28;20023;-83
2022/01/16 04:02:06;;;;;;;15.30;10.38;;;;;;;;;;5112253;28;20031;-82
2022/01/16 04:04:33;;;;;;;12.85;9.98;;;;;;;;;;5093787;28;20019;-84
2022/01/16 04:06:59;;;;;;;14.27;10.65;;;;;;;;;;5112750;28;20032;-87
2022/01/16 04:09:26;;;;;;;14.02;10.20;;;;;;;;;;5094541;28;20352;-88
2022/01/16 04:11:55;;;;;;;13.10;10.07;;;;;;;;;;5112669;28;20027;-85
2022/01/16 04:15:31;;;;;;;13.45;10.43;;;;;;;;;;5111847;28;20106;-83
2022/01/16 04:17:08;;;;;;;13.60;10.80;;;;;;;;;;5111373;28;20035;-83
2022/01/16 04:19:35;;;;;;;12.65;9.52;;;;;;;;;;5111357;28;20458;-82
2022/01/16 04:22:01;;;;;;;12.90;9.55;;;;;;;;;;5112135;28;20400;-82
2022/01/16 04:24:27;;;;;;;13.77;9.95;;;;;;;;;;5111779;28;20024;-81
2022/01/16 04:26:53;;;;;;;13.45;9.05;;;;;;;;;;5111911;28;20028;-84
2022/01/16 04:29:19;;;;;;;12.70;9.75;;;;;;;;;;5111900;28;20141;-80
2022/01/16 04:31:45;;;;;;;15.75;10.88;;;;;;;;;;5093880;28;20057;-86
2022/01/16 04:34:11;;;;;;;13.80;9.93;;;;;;;;;;5111937;28;20090;-86
2022/01/16 04:36:37;;;;;;;13.90;9.90;;;;;;;;;;5093386;28;20105;-86
2022/01/16 04:39:09;;;;;;;11.48;9.82;;;;;;;;;;5111808;28;20015;-87
2022/01/16 04:44:19;;;;;;;12.75;9.48;;;;;;;;;;5111327;28;20177;-82
2022/01/16 04:46:46;;;;;;;12.00;9.40;;;;;;;;;;5111570;28;20114;-86
2022/01/16 04:49:12;;;;;;;11.55;9.55;;;;;;;;;;5111657;28;20453;-87
2022/01/16 04:51:38;;;;;;;12.10;9.25;;;;;;;;;;5093317;28;20023;-81
2022/01/16 04:54:05;;;;;;;12.63;9.88;;;;;;;;;;5093386;28;20027;-81
2022/01/16 04:56:31;;;;;;;12.38;9.32;;;;;;;;;;5111284;28;20024;-82
2022/01/16 04:58:57;;;;;;;13.77;9.60;;;;;;;;;;5094969;28;20023;-80
2022/01/16 05:01:23;;;;;;;13.40;9.55;;;;;;;;;;5115487;28;20479;-80
2022/01/16 05:03:49;;;;;;;14.73;10.40;;;;;;;;;;5115833;28;20022;-82
2022/01/16 05:06:15;;;;;;;13.02;9.50;;;;;;;;;;5115966;28;20483;-82
2022/01/16 05:08:42;;;;;;;14.95;10.02;;;;;;;;;;5115419;28;20031;-84
2022/01/16 05:11:09;;;;;;;12.55;9.73;;;;;;;;;;5115665;28;20458;-86
2022/01/16 05:18:51;;;;;;;12.75;9.68;;;;;;;;;;5101568;28;20442;-81
2022/01/16 05:21:17;;;;;;;14.05;9.63;;;;;;;;;;5115110;28;20039;-86
2022/01/16 05:23:43;;;;;;;11.68;8.82;;;;;;;;;;5115168;28;20060;-81
2022/01/16 05:26:09;;;;;;;12.82;9.60;;;;;;;;;;5115432;28;20065;-81
2022/01/16 05:28:35;;;;;;;11.75;9.10;;;;;;;;;;5096749;28;20470;-81
2022/01/16 05:31:01;;;;;;;12.93;9.63;;;;;;;;;;5115290;28;20020;-82
2022/01/16 05:33:27;;;;;;;13.82;10.55;;;;;;;;;;5115088;28;20517;-81
2022/01/16 05:35:53;;;;;;;11.88;9.00;;;;;;;;;;5115225;28;20024;-80
2022/01/16 05:38:20;;;;;;;12.50;9.88;;;;;;;;;;5114947;28;20047;-80
2022/01/16 05:40:46;;;;;;;13.27;9.00;;;;;;;;;;5115189;28;20040;-81
2022/01/16 05:43:11;;;;;;;11.93;8.52;;;;;;;;;;5114917;28;20102;-81
2022/01/16 05:45:38;;;;;;;12.90;9.23;;;;;;;;;;5114706;28;20380;-83
2022/01/16 05:48:04;;;;;;;12.38;8.40;;;;;;;;;;5114520;28;20028;-84
2022/01/16 05:50:33;;;;;;;11.95;9.48;;;;;;;;;;5114620;28;20391;-85
2022/01/16 05:53:00;;;;;;;12.18;8.85;;;;;;;;;;5114744;28;20023;-81
2022/01/16 05:55:35;;;;;;;12.50;8.95;;;;;;;;;;5114453;28;20024;-80
2022/01/16 05:58:02;;;;;;;10.68;8.43;;;;;;;;;;5114763;28;20020;-81
2022/01/16 06:00:28;;;;;;;11.40;8.48;;;;;;;;;;5113842;28;20027;-81
2022/01/16 06:02:54;;;;;;;11.48;9.13;;;;;;;;;;5114407;28;20102;-80
2022/01/16 06:05:20;;;;;;;12.35;8.13;;;;;;;;;;5114351;28;20030;-80
2022/01/16 06:07:52;;;;;;;13.15;8.48;;;;;;;;;;5096322;28;20055;-81
2022/01/16 06:10:18;;;;;;;11.80;8.70;;;;;;;;;;5095606;28;20388;-81
2022/01/16 06:12:44;;;;;;;13.40;9.43;;;;;;;;;;5114155;28;20102;-83
2022/01/16 06:15:10;;;;;;;12.55;8.75;;;;;;;;;;5114517;28;20028;-83
2022/01/16 06:17:36;;;;;;;11.48;8.70;;;;;;;;;;5113552;28;20156;-81
2022/01/16 06:20:03;;;;;;;9.77;7.70;;;;;;;;;;5095850;28;20031;-82
2022/01/16 06:22:29;;;;;;;11.65;7.85;;;;;;;;;;5114036;28;20031;-81
2022/01/16 06:24:55;;;;;;;12.63;9.07;;;;;;;;;;5114208;28;20019;-80
2022/01/16 06:27:21;;;;;;;12.02;9.15;;;;;;;;;;5113912;28;20027;-80
2022/01/16 06:29:47;;;;;;;13.77;9.15;;;;;;;;;;5114526;28;20016;-80
2022/01/16 06:32:13;;;;;;;11.82;8.50;;;;;;;;;;5095729;28;20038;-81
2022/01/16 06:34:39;;;;;;;11.48;8.35;;;;;;;;;;5113710;28;20028;-81
2022/01/16 06:37:05;;;;;;;11.18;8.35;;;;;;;;;;5113920;28;20035;-80
2022/01/16 06:39:31;;;;;;;11.68;8.82;;;;;;;;;;5113576;28;20487;-82
2022/01/16 06:41:57;;;;;;;12.35;9.00;;;;;;;;;;5113802;28;20035;-84
2022/01/16 06:44:23;;;;;;;13.43;9.30;;;;;;;;;;5113352;28;20542;-83
2022/01/16 06:46:49;;;;;;;11.60;8.60;;;;;;;;;;5095118;28;20038;-80
2022/01/16 06:49:15;;;;;;;14.90;9.90;;;;;;;;;;5095128;28;20038;-81
2022/01/16 06:51:41;;;;;;;13.45;9.50;;;;;;;;;;5095352;28;20031;-80
2022/01/16 06:54:07;;;;;;;13.18;9.02;;;;;;;;;;5113767;28;20366;-80
2022/01/16 06:56:34;;;;;;;12.13;8.93;;;;;;;;;;5095009;28;20110;-80
2022/01/16 06:59:00;;;;;;;12.02;8.68;;;;;;;;;;5113602;28;20024;-81
2022/01/16 07:01:26;;;;;;;12.60;9.05;;;;;;;;;;5113176;28;20032;-81
2022/01/16 07:03:54;;;;;;;14.20;9.70;;;;;;;;;;5113498;28;20031;-81
2022/01/16 07:06:20;;;;;;;14.98;9.77;;;;;;;;;;5113360;28;20537;-80
2022/01/16 07:08:46;;;;;;;13.27;9.25;;;;;;;;;;5113701;28;20030;-82
2022/01/16 07:11:12;;;;;;;14.30;9.57;;;;;;;;;;5113209;28;20548;-81
2022/01/16 07:13:39;;;;;;;11.52;8.68;;;;;;;;;;5094643;28;20406;-81
2022/01/16 07:16:05;;;;;;;12.45;8.65;;;;;;;;;;5112949;28;20047;-80
2022/01/16 07:18:31;;;;;;;13.52;9.88;;;;;;;;;;5112771;28;20165;-82
2022/01/16 07:20:57;;;;;;;12.60;8.73;;;;;;;;;;5112977;28;20059;-82
2022/01/16 07:23:23;;;;;;;14.02;8.88;;;;;;;;;;5112011;28;20042;-82
2022/01/16 07:25:50;;;;;;;12.20;8.80;;;;;;;;;;5113002;28;20034;-80
2022/01/16 07:28:16;;;;;;;13.40;8.95;;;;;;;;;;5113233;28;20027;-81
2022/01/16 07:30:43;;;;;;;13.25;9.35;;;;;;;;;;5112135;28;20376;-83
2022/01/16 07:33:09;;;;;;;14.05;9.18;;;;;;;;;;5112034;28;20519;-82
2022/01/16 07:35:36;;;;;;;12.48;8.95;;;;;;;;;;5112322;28;20104;-82
2022/01/16 07:38:02;;;;;;;14.48;9.50;;;;;;;;;;5112595;28;20107;-82
2022/01/16 07:40:28;;;;;;;13.65;8.90;;;;;;;;;;5112342;28;20059;-81
2022/01/16 07:42:54;;;;;;;14.00;9.15;;;;;;;;;;5112464;28;20034;-80
2022/01/16 07:45:21;;;;;;;13.07;9.18;;;;;;;;;;5112229;28;20070;-81
2022/01/16 07:47:47;;;;;;;13.20;8.77;;;;;;;;;;5112166;28;20073;-82
2022/01/16 07:50:14;;;;;;;12.82;8.93;;;;;;;;;;5112392;28;20517;-79
2022/01/16 07:52:40;;;;;;;13.70;9.55;;;;;;;;;;5112341;28;20051;-84
2022/01/16 07:55:06;;;;;;;11.75;8.35;;;;;;;;;;5112008;28;20059;-82
2022/01/16 07:57:32;;;;;;;11.63;8.50;;;;;;;;;;5111644;28;20534;-84
2022/01/16 07:59:58;;;;;;;13.85;7.95;;;;;;;;;;5112200;28;20108;-83
2022/01/16 08:02:24;;;;;;;11.50;8.63;;;;;;;;;;5111963;28;20475;-81
2022/01/16 08:04:50;;;;;;;12.38;8.82;;;;;;;;;;5093511;28;20087;-84
2022/01/16 08:07:16;;;;;;;10.73;8.40;;;;;;;;;;5094281;28;20020;-84
2022/01/16 08:09:43;;;;;;;12.65;8.57;;;;;;;;;;5093837;28;20028;-84
2022/01/16 08:12:11;;;;;;;12.90;8.35;;;;;;;;;;5112149;28;20558;-79
2022/01/16 08:14:37;;;;;;;10.95;7.90;;;;;;;;;;5111626;28;20031;-81
2022/01/16 08:17:03;;;;;;;12.35;8.30;;;;;;;;;;5112054;28;20023;-84
2022/01/16 08:19:29;;;;;;;11.07;7.38;;;;;;;;;;5111713;28;20024;-83
2022/01/16 08:21:56;;;;;;;10.85;7.82;;;;;;;;;;5111906;28;20046;-82
2022/01/16 08:24:22;;;;;;;10.18;7.75;;;;;;;;;;5113618;28;20032;-85
2022/01/16 08:26:48;;;;;;;13.50;7.68;;;;;;;;;;5113008;28;20510;-84
2022/01/16 08:29:14;;;;;;;28.88;7.30;;;;;;;;;;5112351;28;20031;-83
2022/01/16 08:31:40;;;;;;;31.05;8.10;;;;;;;;;;5111278;28;20024;-83
2022/01/16 08:34:06;;;;;;;22.73;7.63;;;;;;;;;;5111393;28;20051;-82
2022/01/16 08:36:32;;;;;;;30.00;7.40;;;;;;;;;;5111072;28;20027;-81
2022/01/16 08:38:58;;;;;;;19.80;8.13;;;;;;;;;;5111717;28;20031;-79
2022/01/16 08:41:25;;;;;;;11.82;6.93;;;;;;;;;;5111375;28;20100;-82
2022/01/16 08:43:51;;;;;;;12.85;7.38;;;;;;;;;;5111399;28;20028;-83
2022/01/16 08:46:17;;;;;;;11.15;6.78;;;;;;;;;;5093846;28;20051;-81
2022/01/16 08:48:43;;;;;;;15.52;7.20;;;;;;;;;;5111361;28;20375;-82
2022/01/16 08:51:09;;;;;;;10.45;6.38;;;;;;;;;;5111693;28;20031;-80
2022/01/16 08:53:36;;;;;;;12.20;6.72;;;;;;;;;;5111466;28;20062;-85
2022/01/16 08:56:02;;;;;;;12.77;6.95;;;;;;;;;;5093377;28;20047;-84
2022/01/16 08:58:28;;;;;;;17.35;6.50;;;;;;;;;;5111258;28;20031;-88
2022/01/16 09:00:54;;;;;;;9.52;6.38;;;;;;;;;;5110962;28;20141;-82
2022/01/16 09:03:21;;;;;;;11.98;7.05;;;;;;;;;;5110898;28;20031;-84
2022/01/16 09:05:48;;;;;;;11.07;6.20;;;;;;;;;;5111970;28;20026;-86
2022/01/16 09:08:14;;;;;;;17.55;7.90;;;;;;;;;;5111619;28;20125;-81
2022/01/16 09:10:41;;;;;;;10.35;7.00;;;;;;;;;;5109438;28;20055;-81
2022/01/16 09:13:11;;;;;;;15.95;8.55;;;;;;;;;;5110048;28;20105;-81
2022/01/16 09:15:38;;;;;;;10.55;7.25;;;;;;;;;;5091312;28;21425;-85
2022/01/16 09:18:04;;;;;;;10.45;6.82;;;;;;;;;;5089110;28;20024;-79
2022/01/16 09:20:30;;;;;;;10.43;7.03;;;;;;;;;;5111040;28;20031;-82
2022/01/16 09:22:56;;;;;;;14.55;7.15;;;;;;;;;;5093349;28;20598;-88
2022/01/16 09:25:22;;;;;;;14.98;7.57;;;;;;;;;;5111268;28;20028;-81
2022/01/16 09:27:48;;;;;;;14.50;6.82;;;;;;;;;;5093426;28;20053;-80
2022/01/16 09:30:14;;;;;;;11.23;6.30;;;;;;;;;;5092789;28;20035;-80
2022/01/16 09:32:40;;;;;;;13.63;6.50;;;;;;;;;;5111006;28;20387;-83
2022/01/16 09:35:07;;;;;;;10.70;6.65;;;;;;;;;;5111334;28;20395;-84
2022/01/16 09:37:34;;;;;;;10.55;6.75;;;;;;;;;;5111139;28;20452;-78
2022/01/16 09:40:00;;;;;;;7.65;5.82;;;;;;;;;;5110682;28;20032;-79
2022/01/16 09:42:26;;;;;;;7.97;6.10;;;;;;;;;;5110892;28;20023;-80
2022/01/16 09:44:53;;;;;;;7.50;6.05;;;;;;;;;;5110803;28;20034;-78
2022/01/16 09:47:19;;;;;;;9.57;6.05;;;;;;;;;;5115428;28;20020;-81
2022/01/16 09:49:46;;;;;;;7.43;5.63;;;;;;;;;;5115215;28;20027;-83
2022/01/16 09:52:12;;;;;;;8.05;5.68;;;;;;;;;;5114812;28;20034;-82
2022/01/16 09:54:38;;;;;;;10.90;6.07;;;;;;;;;;5114606;28;20059;-80
2022/01/16 09:57:05;;;;;;;8.82;6.32;;;;;;;;;;5114243;28;20024;-76
2022/01/16 09:59:31;;;;;;;8.85;5.95;;;;;;;;;;5095981;28;20023;-80
2022/01/16 10:01:57;;;;;;;8.02;5.22;;;;;;;;;;5114778;28;20035;-86
2022/01/16 10:04:37;;;;;;;7.60;4.95;;;;;;;;;;5096930;28;20044;-85
2022/01/16 10:07:07;;;;;;;9.02;5.70;;;;;;;;;;5115096;28;20103;-84
2022/01/16 10:09:37;;;;;;;9.80;5.32;;;;;;;;;;5112892;28;20028;-85
2022/01/16 10:12:13;;;;;;;9.43;5.45;;;;;;;;;;5114176;28;20019;-82
2022/01/16 10:14:46;;;;;;;;;;;;;;;;;;5114584;28;20034;-82
2022/01/16 10:17:13;;;;;;;7.60;5.00;;;;;;;;;;5113821;28;19912;-80
2022/01/16 10:19:39;;;;;;;7.50;5.43;;;;;;;;;;5095561;28;20946;-83
2022/01/16 10:22:07;;;;;;;9.57;5.43;;;;;;;;;;5114194;28;20066;-81
2022/01/16 10:24:34;;;;;;;9.38;5.53;;;;;;;;;;5113851;28;20043;-79
2022/01/16 10:27:17;;;;;;;7.03;5.47;;;;;;;;;;5114194;28;20072;-79
2022/01/16 10:29:56;;;;;;;9.00;6.07;;;;;;;;;;5095444;28;20023;-79
2022/01/16 10:32:25;;;;;;;8.10;5.30;;;;;;;;;;5112364;28;20105;-79
2022/01/16 10:34:55;;;;;;;7.28;5.32;;;;;;;;;;5113732;28;20024;-80
2022/01/16 10:37:30;;;;;;;7.00;5.03;;;;;;;;;;5113343;28;20027;-79
2022/01/16 10:39:59;;;;;;;8.73;5.00;;;;;;;;;;5093685;28;20027;-79
2022/01/16 10:42:26;;;;;;;5.57;4.65;;;;;;;;;;5093219;28;20058;-79
2022/01/16 10:44:55;;;;;;;7.10;5.53;;;;;;;;;;5092957;28;20035;-79
2022/01/16 10:47:23;;;;;;;8.93;5.43;;;;;;;;;;5093062;28;20023;-79
2022/01/16 10:49:59;;;;;;;8.05;5.75;;;;;;;;;;5093438;28;20058;-78
2022/01/16 10:52:25;;;;;;;7.72;5.88;;;;;;;;;;5092990;28;20028;-81
2022/01/16 10:54:51;;;;;;;8.55;5.57;;;;;;;;;;5093246;28;20024;-79
2022/01/16 10:57:22;;;;;;;8.32;5.22;;;;;;;;;;5096542;28;20027;-79
2022/01/16 10:59:48;;;;;;;5.72;5.07;;;;;;;;;;5113453;28;20047;-79
2022/01/16 11:02:14;;;;;;;7.10;5.22;;;;;;;;;;5113581;28;20034;-79
2022/01/16 11:04:40;;;;;;;6.85;5.45;;;;;;;;;;5113096;28;20150;-80
2022/01/16 11:07:06;;;;;;;7.35;5.55;;;;;;;;;;5113370;28;20399;-80
2022/01/16 11:09:33;;;;;;;6.93;5.35;;;;;;;;;;5112589;28;20020;-79
2022/01/16 11:11:59;;;;;;;8.27;5.68;;;;;;;;;;5112669;28;20106;-79
2022/01/16 11:14:29;;;;;;;7.30;5.13;;;;;;;;;;5112499;28;20028;-82
2022/01/16 11:16:56;;;;;;;7.28;5.57;;;;;;;;;;5112011;28;20039;-79
2022/01/16 11:19:24;;;;;;;9.10;5.35;;;;;;;;;;5111201;28;20082;-78
2022/01/16 11:21:54;;;;;;;9.90;5.47;;;;;;;;;;5112884;28;20039;-82
2022/01/16 11:26:51;;;;;;;15.07;5.38;;;;;;;;;;5113108;28;20023;-79
2022/01/16 11:29:17;;;;;;;6.45;4.78;;;;;;;;;;5113312;28;20393;-82
2022/01/16 11:31:43;;;;;;;6.05;4.13;;;;;;;;;;5110624;28;20022;-82
2022/01/16 11:34:10;;;;;;;8.32;5.75;;;;;;;;;;5110768;28;20031;-82
2022/01/16 11:36:36;;;;;;;8.80;4.95;;;;;;;;;;5110822;28;20049;-80
2022/01/16 11:39:06;;;;;;;6.97;4.90;;;;;;;;;;5110881;28;20055;-82
2022/01/16 11:41:40;;;;;;;11.77;5.03;;;;;;;;;;5110720;28;20026;-82
2022/01/16 11:44:07;;;;;;;7.82;4.90;;;;;;;;;;5111034;28;20102;-83
2022/01/16 11:46:35;;;;;;;7.25;4.82;;;;;;;;;;5092453;28;20084;-82
2022/01/16 11:49:01;;;;;;;7.43;5.38;;;;;;;;;;5110964;28;20077;-83
2022/01/16 11:51:30;;;;;;;7.72;4.20;;;;;;;;;;5110537;28;20114;-80
2022/01/16 11:53:59;;;;;;;7.93;4.60;;;;;;;;;;5108360;28;20483;-80
2022/01/16 11:56:40;;;;;;;6.55;4.22;;;;;;;;;;5093963;28;20114;-84
2022/01/16 11:59:12;;;;;;;8.48;4.50;;;;;;;;;;5112559;28;20031;-84
2022/01/16 12:01:45;;;;;;;6.25;4.55;;;;;;;;;;5111906;28;20032;-81
2022/01/16 12:04:30;;;;;;;6.25;3.95;;;;;;;;;;5112648;28;20051;-84
2022/01/16 12:07:05;;;;;;;4.60;4.00;;;;;;;;;;5112345;28;20020;-84
2022/01/16 12:09:47;;;;;;;9.10;4.70;;;;;;;;;;5111257;28;20027;-81
2022/01/16 12:12:13;;;;;;;7.78;4.60;;;;;;;;;;5094453;28;20495;-83
2022/01/16 12:15:02;;;;;;;5.82;4.20;;;;;;;;;;5112410;28;20197;-84
2022/01/16 12:17:32;;;;;;;28.88;8.65;;;;;;;;;;5093088;28;20521;-84
2022/01/16 12:19:58;;;;;;;53.38;12.65;;;;;;;;;;5094045;28;20391;-83
2022/01/16 12:22:41;;;;;;;35.80;11.13;;;;;;;;;;5112058;28;20105;-82
2022/01/16 12:25:08;;;;;;;35.97;10.80;;;;;;;;;;5112132;28;20105;-84
2022/01/16 12:27:37;;;;;;;35.25;10.27;;;;;;;;;;5112099;28;20031;-82
2022/01/16 12:30:09;;;;;;;27.92;8.98;;;;;;;;;;5111874;28;20027;-83
2022/01/16 12:32:50;;;;;;;21.60;8.20;;;;;;;;;;5093365;28;20107;-83
2022/01/16 12:35:36;;;;;;;23.73;8.63;;;;;;;;;;5111053;28;20047;-84
2022/01/16 12:38:23;;;;;;;24.88;7.95;;;;;;;;;;5112173;28;20027;-84
2022/01/16 12:41:07;;;;;;;17.65;7.55;;;;;;;;;;5111711;28;20035;-84
2022/01/16 12:43:40;;;;;;;21.33;7.57;;;;;;;;;;5111434;28;20051;-83
2022/01/16 12:46:08;;;;;;;26.05;8.88;;;;;;;;;;5092691;28;20059;-80
2022/01/16 12:48:38;;;;;;;26.48;9.23;;;;;;;;;;5111086;28;20020;-83
2022/01/16 12:51:07;;;;;;;25.08;9.38;;;;;;;;;;5111698;28;20395;-83
2022/01/16 12:53:34;;;;;;;24.58;8.13;;;;;;;;;;5111310;28;20019;-81
2022/01/16 12:56:19;;;;;;;21.08;9.50;;;;;;;;;;5111403;28;20020;-83
2022/01/16 12:58:45;;;;;;;20.88;8.57;;;;;;;;;;5093558;28;20080;-82
2022/01/16 13:01:11;;;;;;;24.85;8.90;;;;;;;;;;5111132;28;20036;-83
2022/01/16 13:03:37;;;;;;;32.83;10.02;;;;;;;;;;5111411;28;20031;-81
2022/01/16 13:06:22;;;;;;;22.80;8.07;;;;;;;;;;5093408;28;20077;-81
2022/01/16 13:09:05;;;;;;;24.50;7.53;;;;;;;;;;5110056;28;20035;-81
2022/01/16 13:11:34;;;;;;;19.75;7.32;;;;;;;;;;5109753;28;20027;-78
2022/01/16 13:14:01;;;;;;;20.70;7.22;;;;;;;;;;5109558;28;20024;-78
2022/01/16 13:16:27;;;;;;;20.40;7.15;;;;;;;;;;5110499;28;20023;-77
2022/01/16 13:18:57;;;;;;;18.77;7.32;;;;;;;;;;5109649;28;20033;-77
2022/01/16 13:21:32;;;;;;;17.60;6.95;;;;;;;;;;5112410;28;20040;-77
2022/01/16 13:23:58;;;;;;;17.63;6.13;;;;;;;;;;5113329;28;20015;-78
2022/01/16 13:26:27;;;;;;;18.50;6.35;;;;;;;;;;5113384;28;20517;-81
2022/01/16 13:29:04;;;;;;;13.52;6.35;;;;;;;;;;5095384;28;20391;-79
2022/01/16 13:31:30;;;;;;;18.63;6.30;;;;;;;;;;5094083;28;20026;-81
2022/01/16 13:34:09;;;;;;;14.57;6.30;;;;;;;;;;5114291;28;20020;-81
2022/01/16 13:36:35;;;;;;;13.30;6.22;;;;;;;;;;5114876;28;20509;-82
2022/01/16 13:39:01;;;;;;;14.65;6.68;;;;;;;;;;5115200;28;20095;-80
2022/01/16 13:41:27;;;;;;;14.13;6.00;;;;;;;;;;5114590;28;20035;-83
2022/01/16 13:43:53;;;;;;;13.65;5.68;;;;;;;;;;5114862;28;20031;-82
2022/01/16 13:46:19;;;;;;;14.70;6.90;;;;;;;;;;5114539;28;20088;-80
2022/01/16 13:48:47;;;;;;;13.65;6.18;;;;;;;;;;5115273;28;20028;-88
2022/01/16 13:51:13;;;;;;;11.98;6.32;;;;;;;;;;5114202;28;20019;-87
2022/01/16 13:53:42;;;;;;;14.63;6.68;;;;;;;;;;5113364;28;20032;-85
2022/01/16 13:56:08;;;;;;;13.70;6.13;;;;;;;;;;5095578;28;20015;-87
2022/01/16 13:58:42;;;;;;;16.42;6.88;;;;;;;;;;5110485;28;20383;-85
2022/01/16 14:01:20;;;;;;;14.30;6.40;;;;;;;;;;5113540;28;20116;-88
2022/01/16 14:03:55;;;;;;;13.75;6.80;;;;;;;;;;5112904;28;20058;-84
2022/01/16 14:06:25;;;;;;;13.60;6.63;;;;;;;;;;5111919;28;20032;-87
2022/01/16 14:08:52;;;;;;;15.40;6.82;;;;;;;;;;5113808;28;20027;-85
2022/01/16 14:11:20;;;;;;;15.68;6.82;;;;;;;;;;5114029;28;20027;-86
2022/01/16 14:13:50;;;;;;;11.10;5.78;;;;;;;;;;5114047;28;20016;-84
2022/01/16 14:16:18;;;;;;;13.82;6.38;;;;;;;;;;5111617;27;20031;-86
2022/01/16 14:19:05;;;;;;;10.73;5.57;;;;;;;;;;5114402;28;20157;-84
2022/01/16 14:24:02;;;;;;;12.75;6.03;;;;;;;;;;5114498;28;20055;-83
2022/01/16 14:26:28;;;;;;;10.38;5.97;;;;;;;;;;5113926;28;20035;-83
2022/01/16 14:28:54;;;;;;;13.35;6.15;;;;;;;;;;5114174;28;20016;-83
2022/01/16 14:31:20;;;;;;;11.55;6.00;;;;;;;;;;5112814;28;20471;-81
2022/01/16 14:33:50;;;;;;;11.27;6.10;;;;;;;;;;5114520;28;20016;-89
2022/01/16 14:36:16;;;;;;;16.02;6.53;;;;;;;;;;5114317;28;20059;-85
2022/01/16 14:38:43;;;;;;;12.23;5.82;;;;;;;;;;5113922;28;20028;-85
2022/01/16 14:41:12;;;;;;;10.15;5.85;;;;;;;;;;5113584;28;20415;-88
2022/01/16 14:43:57;;;;;;;12.05;6.22;;;;;;;;;;5112081;28;20486;-87
2022/01/16 14:46:24;;;;;;;12.38;5.28;;;;;;;;;;5112365;28;20475;-87
2022/01/16 14:48:50;;;;;;;10.00;6.13;;;;;;;;;;5112266;28;20020;-86
2022/01/16 14:51:17;;;;;;;12.85;6.45;;;;;;;;;;5112730;27;20031;-88
2022/01/16 14:53:43;;;;;;;12.73;5.93;;;;;;;;;;5113267;28;20024;-84
2022/01/16 14:56:09;;;;;;;10.82;5.82;;;;;;;;;;5113291;28;20028;-84
2022/01/16 14:58:35;;;;;;;11.38;6.25;;;;;;;;;;5113389;28;20487;-84
2022/01/16 15:01:01;;;;;;;14.73;5.78;;;;;;;;;;5111527;28;20077;-83
2022/01/16 15:03:27;;;;;;;15.32;6.35;;;;;;;;;;5111636;28;20026;-83
2022/01/16 15:05:53;;;;;;;9.50;5.75;;;;;;;;;;5111783;28;20102;-84
2022/01/16 15:08:19;;;;;;;12.57;6.00;;;;;;;;;;5111725;27;20455;-83
2022/01/16 15:10:45;;;;;;;9.98;5.57;;;;;;;;;;5111841;28;20077;-83
2022/01/16 15:13:11;;;;;;;10.82;5.47;;;;;;;;;;5111721;28;20027;-83
2022/01/16 15:15:37;;;;;;;12.35;5.88;;;;;;;;;;5111926;28;20403;-84
2022/01/16 15:18:03;;;;;;;11.70;6.35;;;;;;;;;;5093890;28;20031;-84
2022/01/16 15:20:31;;;;;;;12.10;5.97;;;;;;;;;;5112857;28;20024;-84
2022/01/16 15:22:58;;;;;;;10.98;5.88;;;;;;;;;;5113000;28;20027;-84